createdAt,value
2018-04-13T00:00:03.230Z,12.99
2018-04-13T00:01:03.169Z,12.99
2018-04-13T00:02:03.290Z,12.98
2018-04-13T00:03:03.155Z,12.98
2018-04-13T00:04:03.172Z,12.96
2018-04-13T00:05:03.227Z,12.93
2018-04-13T00:06:03.242Z,12.9
2018-04-13T00:07:03.200Z,12.92
2018-04-13T00:08:03.283Z,12.91
2018-04-13T00:09:03.180Z,12.91
2018-04-13T00:10:03.167Z,12.92
2018-04-13T00:11:03.147Z,12.92
2018-04-13T00:12:03.345Z,12.94
2018-04-13T00:13:03.170Z,12.91
2018-04-13T00:14:03.170Z,12.91
2018-04-13T00:15:03.164Z,12.92
2018-04-13T00:16:03.153Z,12.9
2018-04-13T00:17:03.176Z,12.9
2018-04-13T00:18:03.226Z,12.89
2018-04-13T00:19:03.157Z,12.89
2018-04-13T00:20:03.149Z,12.87
2018-04-13T00:21:03.134Z,12.84
2018-04-13T00:22:03.186Z,12.81
2018-04-13T00:23:03.153Z,12.8
2018-04-13T00:24:03.168Z,12.81
2018-04-13T00:25:03.167Z,12.81
2018-04-13T00:26:03.129Z,12.79
2018-04-13T00:27:03.185Z,12.8
2018-04-13T00:28:03.143Z,12.77
2018-04-13T00:29:03.126Z,12.77
2018-04-13T00:30:03.118Z,12.74
2018-04-13T00:31:03.149Z,12.74
2018-04-13T00:32:03.153Z,12.75
2018-04-13T00:33:03.117Z,12.71
2018-04-13T00:34:03.119Z,12.69
2018-04-13T00:35:03.122Z,12.65
2018-04-13T00:36:03.143Z,12.64
2018-04-13T00:37:03.150Z,12.57
2018-04-13T00:38:03.135Z,12.55
2018-04-13T00:39:03.108Z,12.52
2018-04-13T00:40:03.108Z,12.51
2018-04-13T00:41:03.160Z,12.51
2018-04-13T00:42:03.288Z,12.46
2018-04-13T00:43:03.114Z,12.44
2018-04-13T00:44:03.154Z,12.41
2018-04-13T00:45:03.125Z,12.39
2018-04-13T00:46:03.102Z,12.42
2018-04-13T00:47:03.235Z,12.38
2018-04-13T00:48:03.122Z,12.41
2018-04-13T00:49:03.191Z,12.38
2018-04-13T00:50:03.146Z,12.35
2018-04-13T00:51:03.099Z,12.33
2018-04-13T00:52:03.134Z,12.3
2018-04-13T00:53:03.097Z,12.26
2018-04-13T00:54:03.105Z,12.25
2018-04-13T00:55:03.178Z,12.24
2018-04-13T00:56:03.123Z,12.27
2018-04-13T00:57:03.196Z,12.24
2018-04-13T00:58:03.109Z,12.23
2018-04-13T00:59:03.144Z,12.23
2018-04-13T01:00:03.102Z,12.25
2018-04-13T01:01:03.099Z,12.25
2018-04-13T01:02:03.169Z,12.23
2018-04-13T01:03:03.080Z,12.26
2018-04-13T01:04:03.356Z,12.26
2018-04-13T01:05:03.067Z,12.24
2018-04-13T01:06:03.066Z,12.25
2018-04-13T01:07:03.079Z,12.23
2018-04-13T01:08:03.114Z,12.25
2018-04-13T01:09:03.094Z,12.24
2018-04-13T01:10:03.066Z,12.28
2018-04-13T01:11:03.061Z,12.26
2018-04-13T01:12:03.079Z,12.25
2018-04-13T01:13:03.084Z,12.27
2018-04-13T01:14:03.142Z,12.28
2018-04-13T01:15:03.173Z,12.25
2018-04-13T01:16:03.062Z,12.22
2018-04-13T01:17:03.096Z,12.19
2018-04-13T01:18:03.048Z,12.19
2018-04-13T01:19:03.315Z,12.18
2018-04-13T01:20:03.063Z,12.17
2018-04-13T01:21:03.110Z,12.14
2018-04-13T01:22:03.128Z,12.13
2018-04-13T01:23:03.069Z,12.15
2018-04-13T01:24:03.134Z,12.14
2018-04-13T01:25:03.076Z,12.14
2018-04-13T01:26:03.086Z,12.13
2018-04-13T01:27:03.072Z,12.11
2018-04-13T01:28:03.100Z,12.11
2018-04-13T01:29:03.019Z,12.1
2018-04-13T01:30:03.080Z,12.11
2018-04-13T01:31:03.045Z,12.1
2018-04-13T01:32:03.038Z,12.09
2018-04-13T01:33:03.059Z,12.05
2018-04-13T01:34:03.054Z,12.06
2018-04-13T01:35:03.062Z,12.03
2018-04-13T01:36:03.021Z,12
2018-04-13T01:37:03.160Z,11.99
2018-04-13T01:38:03.034Z,11.97
2018-04-13T01:39:03.078Z,11.92
2018-04-13T01:40:03.074Z,11.88
2018-04-13T01:41:03.025Z,11.86
2018-04-13T01:42:03.052Z,11.87
2018-04-13T01:43:03.021Z,11.84
2018-04-13T01:44:03.028Z,11.83
2018-04-13T01:45:03.070Z,11.84
2018-04-13T01:46:03.028Z,11.84
2018-04-13T01:47:03.067Z,11.83
2018-04-13T01:48:03.028Z,11.79
2018-04-13T01:49:03.032Z,11.77
2018-04-13T01:50:03.077Z,11.69
2018-04-13T01:51:03.047Z,11.64
2018-04-13T01:52:03.025Z,11.64
2018-04-13T01:53:03.017Z,11.63
2018-04-13T01:54:02.999Z,11.6
2018-04-13T01:55:03.078Z,11.54
2018-04-13T01:56:03.006Z,11.53
2018-04-13T01:57:02.995Z,11.53
2018-04-13T01:58:03.058Z,11.52
2018-04-13T01:59:03.066Z,11.52
2018-04-13T02:00:03.105Z,11.52
2018-04-13T02:01:03.008Z,11.52
2018-04-13T02:02:03.016Z,11.53
2018-04-13T02:03:03.087Z,11.52
2018-04-13T02:04:02.977Z,11.48
2018-04-13T02:05:03.109Z,11.47
2018-04-13T02:06:02.979Z,11.5
2018-04-13T02:07:02.986Z,11.49
2018-04-13T02:08:03.065Z,11.48
2018-04-13T02:09:02.996Z,11.47
2018-04-13T02:10:03.008Z,11.46
2018-04-13T02:11:03.018Z,11.46
2018-04-13T02:12:03.007Z,11.47
2018-04-13T02:13:02.966Z,11.46
2018-04-13T02:14:03.118Z,11.46
2018-04-13T02:15:02.983Z,11.45
2018-04-13T02:16:02.980Z,11.46
2018-04-13T02:17:02.986Z,11.46
2018-04-13T02:18:02.955Z,11.46
2018-04-13T02:19:02.961Z,11.46
2018-04-13T02:20:02.990Z,11.46
2018-04-13T02:21:02.965Z,11.46
2018-04-13T02:22:02.972Z,11.44
2018-04-13T02:23:02.966Z,11.41
2018-04-13T02:24:03.071Z,11.36
2018-04-13T02:25:03.107Z,11.34
2018-04-13T02:26:03.319Z,11.32
2018-04-13T02:27:02.964Z,11.29
2018-04-13T02:28:02.958Z,11.3
2018-04-13T02:29:03.008Z,11.28
2018-04-13T02:30:02.978Z,11.32
2018-04-13T02:31:02.978Z,11.32
2018-04-13T02:32:02.952Z,11.32
2018-04-13T02:33:02.989Z,11.32
2018-04-13T02:34:03.139Z,11.34
2018-04-13T02:35:02.983Z,11.34
2018-04-13T02:36:02.979Z,11.34
2018-04-13T02:37:02.982Z,11.33
2018-04-13T02:38:02.983Z,11.31
2018-04-13T02:39:02.976Z,11.31
2018-04-13T02:40:02.980Z,11.32
2018-04-13T02:41:02.976Z,11.3
2018-04-13T02:42:02.958Z,11.27
2018-04-13T02:43:02.950Z,11.23
2018-04-13T02:44:03.013Z,11.23
2018-04-13T02:45:02.952Z,11.21
2018-04-13T02:46:02.942Z,11.22
2018-04-13T02:47:02.910Z,11.2
2018-04-13T02:48:02.940Z,11.19
2018-04-13T02:49:02.958Z,11.16
2018-04-13T02:50:02.969Z,11
2018-04-13T02:51:02.911Z,11.04
2018-04-13T02:52:02.924Z,11.06
2018-04-13T02:53:02.921Z,11.02
2018-04-13T02:54:02.968Z,11.01
2018-04-13T02:55:02.928Z,11.01
2018-04-13T02:56:02.896Z,11.01
2018-04-13T02:57:02.951Z,11
2018-04-13T02:58:02.914Z,10.9
2018-04-13T02:59:03.154Z,10.76
2018-04-13T03:00:02.918Z,10.8
2018-04-13T03:01:02.917Z,10.77
2018-04-13T03:02:02.910Z,10.78
2018-04-13T03:03:02.913Z,10.69
2018-04-13T03:04:02.927Z,10.62
2018-04-13T03:05:02.921Z,10.67
2018-04-13T03:06:02.896Z,10.67
2018-04-13T03:07:02.871Z,10.68
2018-04-13T03:08:02.901Z,10.7
2018-04-13T03:09:02.939Z,10.7
2018-04-13T03:10:02.898Z,10.68
2018-04-13T03:11:02.889Z,10.69
2018-04-13T03:12:02.908Z,10.71
2018-04-13T03:13:02.916Z,10.72
2018-04-13T03:14:02.929Z,10.72
2018-04-13T03:15:02.878Z,10.75
2018-04-13T03:16:02.864Z,10.74
2018-04-13T03:17:02.891Z,10.72
2018-04-13T03:18:02.880Z,10.73
2018-04-13T03:19:02.926Z,10.73
2018-04-13T03:20:02.879Z,10.73
2018-04-13T03:21:02.864Z,10.73
2018-04-13T03:22:02.864Z,10.76
2018-04-13T03:23:02.860Z,10.73
2018-04-13T03:24:02.884Z,10.76
2018-04-13T03:25:02.897Z,10.74
2018-04-13T03:26:02.961Z,10.74
2018-04-13T03:27:02.890Z,10.73
2018-04-13T03:28:02.866Z,10.74
2018-04-13T03:29:02.888Z,10.73
2018-04-13T03:30:02.907Z,10.73
2018-04-13T03:31:02.896Z,10.71
2018-04-13T03:32:02.966Z,10.71
2018-04-13T03:33:02.877Z,10.67
2018-04-13T03:34:03.027Z,10.67
2018-04-13T03:35:02.881Z,10.7
2018-04-13T03:36:02.889Z,10.68
2018-04-13T03:37:02.861Z,10.68
2018-04-13T03:38:02.876Z,10.67
2018-04-13T03:39:02.980Z,10.68
2018-04-13T03:40:02.854Z,10.67
2018-04-13T03:41:02.842Z,10.66
2018-04-13T03:42:02.856Z,10.67
2018-04-13T03:43:02.908Z,10.69
2018-04-13T03:44:02.849Z,10.67
2018-04-13T03:45:02.840Z,10.65
2018-04-13T03:46:02.831Z,10.64
2018-04-13T03:47:02.931Z,10.61
2018-04-13T03:48:02.822Z,10.63
2018-04-13T03:49:02.847Z,10.62
2018-04-13T03:50:02.898Z,10.57
2018-04-13T03:51:02.835Z,10.54
2018-04-13T03:52:02.829Z,10.55
2018-04-13T03:53:02.876Z,10.53
2018-04-13T03:54:02.859Z,10.51
2018-04-13T03:55:02.842Z,10.5
2018-04-13T03:56:02.817Z,10.46
2018-04-13T03:57:02.878Z,10.48
2018-04-13T03:58:02.884Z,10.47
2018-04-13T03:59:02.924Z,10.46
2018-04-13T04:00:02.856Z,10.4
2018-04-13T04:01:02.799Z,10.34
2018-04-13T04:02:03.038Z,10.31
2018-04-13T04:03:02.806Z,10.31
2018-04-13T04:04:02.929Z,10.34
2018-04-13T04:05:02.825Z,10.32
2018-04-13T04:06:02.821Z,10.32
2018-04-13T04:07:02.775Z,10.33
2018-04-13T04:08:02.809Z,10.31
2018-04-13T04:09:02.846Z,10.34
2018-04-13T04:10:02.836Z,10.34
2018-04-13T04:11:03.300Z,10.33
2018-04-13T04:12:02.807Z,10.35
2018-04-13T04:13:02.810Z,10.35
2018-04-13T04:14:02.771Z,10.34
2018-04-13T04:15:02.807Z,10.35
2018-04-13T04:16:02.852Z,10.38
2018-04-13T04:17:02.837Z,10.38
2018-04-13T04:18:02.905Z,10.38
2018-04-13T04:19:02.779Z,10.39
2018-04-13T04:20:02.789Z,10.36
2018-04-13T04:21:02.920Z,10.37
2018-04-13T04:22:02.914Z,10.34
2018-04-13T04:23:02.781Z,10.36
2018-04-13T04:24:02.805Z,10.35
2018-04-13T04:25:02.857Z,10.39
2018-04-13T04:26:02.839Z,10.39
2018-04-13T04:27:02.796Z,10.37
2018-04-13T04:28:03.121Z,10.39
2018-04-13T04:29:02.763Z,10.37
2018-04-13T04:30:02.827Z,10.39
2018-04-13T04:31:02.757Z,10.41
2018-04-13T04:32:02.780Z,10.41
2018-04-13T04:33:02.784Z,10.42
2018-04-13T04:34:02.786Z,10.41
2018-04-13T04:35:02.796Z,10.41
2018-04-13T04:36:02.758Z,10.4
2018-04-13T04:37:02.772Z,10.41
2018-04-13T04:38:02.789Z,10.41
2018-04-13T04:39:02.739Z,10.43
2018-04-13T04:40:02.775Z,10.45
2018-04-13T04:41:02.755Z,10.45
2018-04-13T04:42:02.744Z,10.45
2018-04-13T04:43:02.771Z,10.46
2018-04-13T04:44:02.786Z,10.5
2018-04-13T04:45:02.860Z,10.47
2018-04-13T04:46:02.729Z,10.48
2018-04-13T04:47:02.738Z,10.52
2018-04-13T04:48:02.780Z,10.52
2018-04-13T04:49:02.734Z,10.53
2018-04-13T04:50:02.835Z,10.53
2018-04-13T04:51:02.727Z,10.52
2018-04-13T04:52:02.712Z,10.51
2018-04-13T04:53:02.771Z,10.52
2018-04-13T04:54:02.723Z,10.52
2018-04-13T04:55:02.733Z,10.49
2018-04-13T04:56:02.746Z,10.48
2018-04-13T04:57:02.729Z,10.48
2018-04-13T04:58:02.807Z,10.47
2018-04-13T04:59:02.716Z,10.48
2018-04-13T05:00:02.852Z,10.47
2018-04-13T05:01:02.712Z,10.48
2018-04-13T05:02:02.725Z,10.47
2018-04-13T05:03:02.755Z,10.5
2018-04-13T05:04:02.723Z,10.51
2018-04-13T05:05:02.749Z,10.51
2018-04-13T05:06:02.716Z,10.51
2018-04-13T05:07:02.753Z,10.52
2018-04-13T05:08:02.877Z,10.53
2018-04-13T05:09:02.723Z,10.52
2018-04-13T05:10:02.827Z,10.52
2018-04-13T05:11:02.701Z,10.51
2018-04-13T05:12:03.149Z,10.5
2018-04-13T05:13:02.720Z,10.5
2018-04-13T05:14:02.702Z,10.5
2018-04-13T05:15:02.721Z,10.51
2018-04-13T05:16:02.821Z,10.51
2018-04-13T05:17:02.720Z,10.5
2018-04-13T05:18:02.697Z,10.52
2018-04-13T05:19:02.694Z,10.51
2018-04-13T05:20:02.723Z,10.49
2018-04-13T05:21:02.801Z,10.48
2018-04-13T05:22:02.726Z,10.41
2018-04-13T05:23:02.696Z,10.41
2018-04-13T05:24:02.838Z,10.42
2018-04-13T05:25:02.786Z,10.45
2018-04-13T05:26:02.690Z,10.44
2018-04-13T05:27:02.685Z,10.46
2018-04-13T05:28:02.692Z,10.45
2018-04-13T05:29:02.712Z,10.47
2018-04-13T05:30:02.702Z,10.47
2018-04-13T05:31:02.777Z,10.49
2018-04-13T05:32:02.739Z,10.49
2018-04-13T05:33:02.672Z,10.5
2018-04-13T05:34:02.683Z,10.49
2018-04-13T05:35:02.692Z,10.49
2018-04-13T05:36:02.659Z,10.51
2018-04-13T05:37:02.725Z,10.52
2018-04-13T05:38:02.650Z,10.53
2018-04-13T05:39:02.654Z,10.55
2018-04-13T05:40:02.747Z,10.52
2018-04-13T05:41:02.782Z,10.5
2018-04-13T05:42:02.765Z,10.45
2018-04-13T05:43:02.678Z,10.44
2018-04-13T05:44:02.651Z,10.45
2018-04-13T05:45:02.712Z,10.46
2018-04-13T05:46:03.075Z,10.49
2018-04-13T05:47:02.650Z,10.48
2018-04-13T05:48:02.689Z,10.5
2018-04-13T05:49:02.639Z,10.52
2018-04-13T05:50:02.639Z,10.53
2018-04-13T05:51:02.662Z,10.53
2018-04-13T05:52:02.660Z,10.53
2018-04-13T05:53:02.669Z,10.54
2018-04-13T05:54:02.635Z,10.54
2018-04-13T05:55:02.630Z,10.57
2018-04-13T05:56:02.619Z,10.58
2018-04-13T05:57:02.661Z,10.59
2018-04-13T05:58:02.847Z,10.59
2018-04-13T05:59:02.622Z,10.58
2018-04-13T06:00:02.648Z,10.6
2018-04-13T06:01:02.626Z,10.55
2018-04-13T06:02:02.631Z,10.56
2018-04-13T06:03:02.637Z,10.57
2018-04-13T06:04:02.662Z,10.57
2018-04-13T06:05:02.746Z,10.58
2018-04-13T06:06:03.046Z,10.6
2018-04-13T06:07:02.606Z,10.64
2018-04-13T06:08:02.624Z,10.65
2018-04-13T06:09:02.623Z,10.67
2018-04-13T06:10:02.741Z,10.7
2018-04-13T06:11:02.618Z,10.71
2018-04-13T06:12:02.624Z,10.72
2018-04-13T06:13:02.650Z,10.77
2018-04-13T06:14:02.604Z,10.78
2018-04-13T06:15:02.600Z,10.79
2018-04-13T06:16:02.597Z,10.81
2018-04-13T06:17:02.602Z,10.83
2018-04-13T06:18:02.636Z,10.84
2018-04-13T06:19:02.732Z,10.87
2018-04-13T06:20:02.648Z,10.84
2018-04-13T06:21:02.620Z,10.89
2018-04-13T06:22:02.599Z,10.89
2018-04-13T06:23:02.581Z,10.9
2018-04-13T06:24:02.583Z,10.92
2018-04-13T06:25:02.672Z,10.93
2018-04-13T06:26:02.609Z,10.94
2018-04-13T06:27:02.599Z,10.94
2018-04-13T06:28:02.933Z,10.95
2018-04-13T06:29:02.625Z,10.96
2018-04-13T06:30:02.592Z,10.97
2018-04-13T06:31:02.570Z,11
2018-04-13T06:32:02.585Z,10.98
2018-04-13T06:33:02.618Z,11.01
2018-04-13T06:34:02.598Z,11.02
2018-04-13T06:35:02.643Z,11.02
2018-04-13T06:36:02.593Z,11.06
2018-04-13T06:37:02.595Z,11.04
2018-04-13T06:38:02.596Z,11.07
2018-04-13T06:39:02.587Z,11.08
2018-04-13T06:40:02.595Z,11.08
2018-04-13T06:41:02.563Z,11.09
2018-04-13T06:42:02.691Z,11.09
2018-04-13T06:43:02.659Z,11.12
2018-04-13T06:44:02.633Z,11.13
2018-04-13T06:45:02.591Z,11.14
2018-04-13T06:46:02.613Z,11.14
2018-04-13T06:47:02.587Z,11.15
2018-04-13T06:48:02.572Z,11.17
2018-04-13T06:49:02.570Z,11.16
2018-04-13T06:50:02.561Z,11.19
2018-04-13T06:51:02.578Z,11.2
2018-04-13T06:52:02.552Z,11.22
2018-04-13T06:53:02.573Z,11.21
2018-04-13T06:54:02.537Z,11.25
2018-04-13T06:55:02.545Z,11.25
2018-04-13T06:56:02.546Z,11.25
2018-04-13T06:57:02.563Z,11.27
2018-04-13T06:58:02.596Z,11.27
2018-04-13T06:59:02.553Z,11.28
2018-04-13T07:00:02.590Z,11.3
2018-04-13T07:01:02.679Z,11.29
2018-04-13T07:02:02.545Z,11.32
2018-04-13T07:03:02.595Z,11.32
2018-04-13T07:04:02.581Z,11.33
2018-04-13T07:05:02.580Z,11.33
2018-04-13T07:06:02.598Z,11.34
2018-04-13T07:07:02.573Z,11.36
2018-04-13T07:08:02.630Z,11.38
2018-04-13T07:09:02.540Z,11.38
2018-04-13T07:10:02.546Z,11.39
2018-04-13T07:11:02.570Z,11.4
2018-04-13T07:12:02.583Z,11.4
2018-04-13T07:13:02.544Z,11.4
2018-04-13T07:14:02.546Z,11.4
2018-04-13T07:15:02.548Z,11.43
2018-04-13T07:16:02.542Z,11.44
2018-04-13T07:17:02.569Z,11.45
2018-04-13T07:18:02.573Z,11.44
2018-04-13T07:19:02.607Z,11.48
2018-04-13T07:20:02.525Z,11.44
2018-04-13T07:21:02.555Z,11.45
2018-04-13T07:22:02.640Z,11.46
2018-04-13T07:23:02.575Z,11.42
2018-04-13T07:24:02.528Z,11.44
2018-04-13T07:25:02.965Z,11.44
2018-04-13T07:26:02.494Z,11.46
2018-04-13T07:27:02.543Z,11.48
2018-04-13T07:28:02.565Z,11.48
2018-04-13T07:29:02.520Z,11.48
2018-04-13T07:30:02.644Z,11.5
2018-04-13T07:31:02.524Z,11.5
2018-04-13T07:32:02.520Z,11.5
2018-04-13T07:33:02.548Z,11.54
2018-04-13T07:34:02.523Z,11.53
2018-04-13T07:35:02.517Z,11.51
2018-04-13T07:36:02.547Z,11.53
2018-04-13T07:37:02.521Z,11.53
2018-04-13T07:38:02.614Z,11.55
2018-04-13T07:39:02.620Z,11.55
2018-04-13T07:40:02.640Z,11.57
2018-04-13T07:41:02.510Z,11.57
2018-04-13T07:42:02.525Z,11.57
2018-04-13T07:43:02.498Z,11.6
2018-04-13T07:44:02.557Z,11.59
2018-04-13T07:45:03.401Z,11.61
2018-04-13T07:46:02.988Z,11.62
2018-04-13T07:47:02.645Z,11.62
2018-04-13T07:48:02.572Z,11.64
2018-04-13T07:49:02.483Z,11.64
2018-04-13T07:50:02.528Z,11.63
2018-04-13T07:51:02.518Z,11.63
2018-04-13T07:52:02.522Z,11.64
2018-04-13T07:53:02.481Z,11.65
2018-04-13T07:54:02.487Z,11.65
2018-04-13T07:55:02.472Z,11.67
2018-04-13T07:56:02.476Z,11.65
2018-04-13T07:57:02.504Z,11.69
2018-04-13T07:58:03.975Z,11.67
2018-04-13T07:59:02.579Z,11.69
2018-04-13T08:00:02.486Z,11.69
2018-04-13T08:01:02.988Z,11.67
2018-04-13T08:02:02.487Z,11.66
2018-04-13T08:03:02.459Z,11.66
2018-04-13T08:04:02.445Z,11.67
2018-04-13T08:05:03.560Z,11.65
2018-04-13T08:06:02.500Z,11.65
2018-04-13T08:07:02.460Z,11.64
2018-04-13T08:08:02.468Z,11.62
2018-04-13T08:09:02.784Z,11.63
2018-04-13T08:10:02.456Z,11.6
2018-04-13T08:11:02.448Z,11.63
2018-04-13T08:12:02.486Z,11.6
2018-04-13T08:13:04.166Z,11.6
2018-04-13T08:14:02.895Z,11.61
2018-04-13T08:15:02.578Z,11.6
2018-04-13T08:16:02.590Z,11.58
2018-04-13T08:17:02.468Z,11.55
2018-04-13T08:18:02.770Z,11.52
2018-04-13T08:19:02.434Z,11.54
2018-04-13T08:20:02.446Z,11.49
2018-04-13T08:21:02.423Z,11.46
2018-04-13T08:22:02.691Z,11.4
2018-04-13T08:23:02.427Z,11.44
2018-04-13T08:24:02.504Z,11.44
2018-04-13T08:25:02.511Z,11.44
2018-04-13T08:26:02.414Z,11.42
2018-04-13T08:27:02.475Z,11.41
2018-04-13T08:28:02.541Z,11.43
2018-04-13T08:29:02.416Z,11.41
2018-04-13T08:30:02.575Z,11.39
2018-04-13T08:31:02.406Z,11.35
2018-04-13T08:32:02.668Z,11.33
2018-04-13T08:33:02.416Z,11.36
2018-04-13T08:34:02.617Z,11.33
2018-04-13T08:35:02.612Z,11.33
2018-04-13T08:36:02.493Z,11.3
2018-04-13T08:37:04.021Z,11.28
2018-04-13T08:38:02.671Z,11.28
2018-04-13T08:39:02.493Z,11.27
2018-04-13T08:40:02.483Z,11.23
2018-04-13T08:41:02.503Z,11.22
2018-04-13T08:42:02.400Z,11.24
2018-04-13T08:43:02.497Z,11.24
2018-04-13T08:44:02.466Z,11.22
2018-04-13T08:45:02.406Z,11.23
2018-04-13T08:46:02.450Z,11.21
2018-04-13T08:47:02.415Z,11.24
2018-04-13T08:48:02.481Z,11.21
2018-04-13T08:49:04.524Z,11.21
2018-04-13T08:50:02.659Z,11.21
2018-04-13T08:51:02.537Z,11.21
2018-04-13T08:52:02.392Z,11.22
2018-04-13T08:53:02.539Z,11.21
2018-04-13T08:54:02.727Z,11.21
2018-04-13T08:55:02.393Z,11.19
2018-04-13T08:56:02.382Z,11.19
2018-04-13T08:57:02.373Z,11.11
2018-04-13T08:58:02.517Z,11.11
2018-04-13T08:59:02.386Z,11.1
2018-04-13T09:00:02.405Z,11.08
2018-04-13T09:01:02.923Z,11.07
2018-04-13T09:02:02.752Z,11.07
2018-04-13T09:03:02.390Z,11.07
2018-04-13T09:04:02.375Z,11.04
2018-04-13T09:05:02.372Z,11.03
2018-04-13T09:06:02.354Z,11.02
2018-04-13T09:07:02.395Z,11.02
2018-04-13T09:08:02.398Z,11.03
2018-04-13T09:09:02.360Z,11.02
2018-04-13T09:10:02.394Z,10.98
2018-04-13T09:11:02.391Z,10.95
2018-04-13T09:12:02.378Z,10.96
2018-04-13T09:13:02.739Z,10.98
2018-04-13T09:14:02.433Z,10.96
2018-04-13T09:15:02.346Z,10.98
2018-04-13T09:16:02.347Z,11
2018-04-13T09:17:02.396Z,11.01
2018-04-13T09:18:02.667Z,10.98
2018-04-13T09:19:02.340Z,10.99
2018-04-13T09:20:02.501Z,11
2018-04-13T09:21:02.357Z,10.97
2018-04-13T09:22:02.356Z,10.94
2018-04-13T09:23:02.350Z,10.94
2018-04-13T09:24:02.388Z,10.94
2018-04-13T09:25:02.383Z,10.93
2018-04-13T09:26:02.389Z,10.87
2018-04-13T09:27:02.384Z,10.87
2018-04-13T09:28:02.706Z,10.89
2018-04-13T09:29:02.312Z,10.84
2018-04-13T09:30:02.386Z,10.87
2018-04-13T09:31:02.383Z,10.82
2018-04-13T09:32:02.391Z,10.86
2018-04-13T09:33:02.431Z,10.84
2018-04-13T09:34:02.350Z,10.87
2018-04-13T09:35:02.323Z,10.81
2018-04-13T09:36:02.457Z,10.82
2018-04-13T09:37:02.345Z,10.8
2018-04-13T09:38:02.401Z,10.79
2018-04-13T09:39:02.329Z,10.77
2018-04-13T09:40:02.335Z,10.75
2018-04-13T09:41:02.348Z,10.69
2018-04-13T09:42:02.356Z,10.7
2018-04-13T09:43:02.406Z,10.68
2018-04-13T09:44:02.282Z,10.68
2018-04-13T09:45:02.289Z,10.67
2018-04-13T09:46:02.332Z,10.67
2018-04-13T09:47:02.492Z,10.69
2018-04-13T09:48:02.318Z,10.65
2018-04-13T09:49:02.326Z,10.66
2018-04-13T09:50:03.290Z,10.63
2018-04-13T09:51:02.433Z,10.66
2018-04-13T09:52:02.311Z,10.65
2018-04-13T09:53:02.326Z,10.64
2018-04-13T09:54:02.317Z,10.66
2018-04-13T09:55:02.272Z,10.62
2018-04-13T09:56:02.470Z,10.63
2018-04-13T09:57:02.282Z,10.63
2018-04-13T09:58:02.311Z,10.64
2018-04-13T09:59:02.308Z,10.64
2018-04-13T10:00:02.266Z,10.64
2018-04-13T10:01:02.289Z,10.67
2018-04-13T10:02:02.259Z,10.66
2018-04-13T10:03:02.257Z,10.65
2018-04-13T10:04:02.331Z,10.66
2018-04-13T10:05:02.245Z,10.68
2018-04-13T10:06:02.250Z,10.66
2018-04-13T10:07:02.253Z,10.65
2018-04-13T10:08:02.611Z,10.69
2018-04-13T10:09:02.258Z,10.68
2018-04-13T10:10:02.260Z,10.68
2018-04-13T10:11:02.258Z,10.68
2018-04-13T10:12:02.287Z,10.64
2018-04-13T10:13:02.263Z,10.66
2018-04-13T10:14:02.229Z,10.65
2018-04-13T10:15:02.243Z,10.64
2018-04-13T10:16:02.238Z,10.66
2018-04-13T10:17:02.257Z,10.66
2018-04-13T10:18:02.246Z,10.64
2018-04-13T10:19:02.239Z,10.65
2018-04-13T10:20:02.243Z,10.64
2018-04-13T10:21:02.232Z,10.64
2018-04-13T10:22:02.252Z,10.62
2018-04-13T10:23:02.237Z,10.6
2018-04-13T10:24:02.255Z,10.61
2018-04-13T10:25:02.353Z,10.6
2018-04-13T10:26:02.384Z,10.6
2018-04-13T10:27:02.289Z,10.59
2018-04-13T10:28:02.279Z,10.6
2018-04-13T10:29:02.341Z,10.61
2018-04-13T10:30:02.261Z,10.6
2018-04-13T10:31:02.215Z,10.62
2018-04-13T10:32:02.240Z,10.64
2018-04-13T10:33:02.222Z,10.64
2018-04-13T10:34:02.341Z,10.66
2018-04-13T10:35:02.240Z,10.67
2018-04-13T10:36:02.222Z,10.71
2018-04-13T10:37:02.256Z,10.69
2018-04-13T10:38:02.251Z,10.68
2018-04-13T10:39:02.235Z,10.67
2018-04-13T10:40:02.247Z,10.67
2018-04-13T10:41:02.218Z,10.66
2018-04-13T10:42:02.257Z,10.67
2018-04-13T10:43:02.214Z,10.65
2018-04-13T10:44:02.295Z,10.62
2018-04-13T10:45:02.286Z,10.62
2018-04-13T10:46:02.232Z,10.65
2018-04-13T10:47:02.211Z,10.65
2018-04-13T10:48:02.236Z,10.66
2018-04-13T10:49:02.286Z,10.62
2018-04-13T10:50:02.224Z,10.68
2018-04-13T10:51:02.241Z,10.74
2018-04-13T10:52:02.230Z,10.73
2018-04-13T10:53:02.221Z,10.73
2018-04-13T10:54:02.217Z,10.74
2018-04-13T10:55:02.283Z,10.74
2018-04-13T10:56:02.191Z,10.76
2018-04-13T10:57:02.605Z,10.77
2018-04-13T10:58:02.305Z,10.8
2018-04-13T10:59:02.254Z,10.75
2018-04-13T11:00:02.203Z,10.74
2018-04-13T11:01:02.211Z,10.73
2018-04-13T11:02:02.180Z,10.75
2018-04-13T11:03:02.256Z,10.7
2018-04-13T11:04:02.167Z,10.71
2018-04-13T11:05:02.220Z,10.66
2018-04-13T11:06:02.229Z,10.68
2018-04-13T11:07:02.190Z,10.67
2018-04-13T11:08:02.170Z,10.71
2018-04-13T11:09:02.179Z,10.71
2018-04-13T11:10:02.190Z,10.75
2018-04-13T11:11:02.221Z,10.71
2018-04-13T11:12:02.210Z,10.77
2018-04-13T11:13:02.190Z,10.74
2018-04-13T11:14:02.514Z,10.73
2018-04-13T11:15:02.173Z,10.69
2018-04-13T11:16:02.161Z,10.73
2018-04-13T11:17:02.146Z,10.7
2018-04-13T11:18:02.187Z,10.68
2018-04-13T11:19:02.193Z,10.64
2018-04-13T11:20:02.181Z,10.67
2018-04-13T11:21:02.159Z,10.68
2018-04-13T11:22:02.149Z,10.64
2018-04-13T11:23:02.140Z,10.67
2018-04-13T11:24:02.126Z,10.68
2018-04-13T11:25:02.170Z,10.64
2018-04-13T11:26:02.182Z,10.65
2018-04-13T11:27:02.454Z,10.64
2018-04-13T11:28:02.187Z,10.67
2018-04-13T11:29:02.269Z,10.66
2018-04-13T11:30:02.333Z,10.61
2018-04-13T11:31:02.172Z,10.6
2018-04-13T11:32:02.247Z,10.59
2018-04-13T11:33:02.131Z,10.55
2018-04-13T11:34:02.118Z,10.57
2018-04-13T11:35:02.140Z,10.55
2018-04-13T11:36:02.144Z,10.52
2018-04-13T11:37:02.231Z,10.51
2018-04-13T11:38:02.153Z,10.54
2018-04-13T11:39:02.154Z,10.53
2018-04-13T11:40:02.120Z,10.53
2018-04-13T11:41:02.135Z,10.51
2018-04-13T11:42:02.137Z,10.5
2018-04-13T11:43:02.106Z,10.49
2018-04-13T11:44:02.129Z,10.46
2018-04-13T11:45:02.090Z,10.47
2018-04-13T11:46:02.083Z,10.48
2018-04-13T11:47:02.219Z,10.5
2018-04-13T11:48:02.107Z,10.45
2018-04-13T11:49:02.184Z,10.48
2018-04-13T11:50:02.319Z,10.47
2018-04-13T11:51:02.083Z,10.45
2018-04-13T11:52:02.162Z,10.45
2018-04-13T11:53:02.084Z,10.45
2018-04-13T11:54:02.118Z,10.45
2018-04-13T11:55:02.154Z,10.46
2018-04-13T11:56:02.121Z,10.48
2018-04-13T11:57:02.104Z,10.49
2018-04-13T11:58:02.080Z,10.43
2018-04-13T11:59:02.155Z,10.46
2018-04-13T12:00:02.173Z,10.4
2018-04-13T12:01:02.097Z,10.42
2018-04-13T12:02:02.112Z,10.37
2018-04-13T12:03:02.076Z,10.41
2018-04-13T12:04:02.138Z,10.43
2018-04-13T12:05:02.098Z,10.4
2018-04-13T12:06:02.121Z,10.43
2018-04-13T12:07:02.144Z,10.35
2018-04-13T12:08:02.087Z,10.4
2018-04-13T12:09:02.086Z,10.38
2018-04-13T12:10:02.052Z,10.43
2018-04-13T12:11:02.070Z,10.41
2018-04-13T12:12:02.056Z,10.4
2018-04-13T12:13:02.072Z,10.42
2018-04-13T12:14:02.053Z,10.39
2018-04-13T12:15:02.099Z,10.41
2018-04-13T12:16:02.098Z,10.42
2018-04-13T12:17:02.068Z,10.43
2018-04-13T12:18:02.085Z,10.43
2018-04-13T12:19:02.206Z,10.45
2018-04-13T12:20:02.057Z,10.44
2018-04-13T12:21:02.049Z,10.45
2018-04-13T12:22:02.041Z,10.42
2018-04-13T12:23:02.078Z,10.44
2018-04-13T12:24:02.056Z,10.45
2018-04-13T12:25:02.156Z,10.45
2018-04-13T12:26:02.054Z,10.48
2018-04-13T12:27:02.050Z,10.45
2018-04-13T12:28:02.051Z,10.46
2018-04-13T12:29:02.089Z,10.45
2018-04-13T12:30:02.082Z,10.48
2018-04-13T12:31:02.027Z,10.45
2018-04-13T12:32:02.179Z,10.45
2018-04-13T12:33:02.109Z,10.48
2018-04-13T12:34:02.065Z,10.5
2018-04-13T12:35:02.177Z,10.51
2018-04-13T12:36:02.092Z,10.5
2018-04-13T12:37:02.078Z,10.54
2018-04-13T12:38:02.073Z,10.52
2018-04-13T12:39:02.069Z,10.52
2018-04-13T12:40:01.989Z,10.54
2018-04-13T12:41:03.642Z,10.52
2018-04-13T12:42:02.105Z,10.53
2018-04-13T12:43:02.355Z,10.52
2018-04-13T12:44:02.057Z,10.54
2018-04-13T12:45:02.721Z,10.55
2018-04-13T12:46:02.005Z,10.56
2018-04-13T12:47:02.051Z,10.55
2018-04-13T12:48:01.989Z,10.5
2018-04-13T12:49:02.707Z,10.53
2018-04-13T12:50:04.075Z,10.55
2018-04-13T12:51:02.050Z,10.53
2018-04-13T12:52:02.643Z,10.53
2018-04-13T12:53:02.326Z,10.56
2018-04-13T12:54:02.486Z,10.56
2018-04-13T12:55:06.341Z,10.56